createdAt,value
2019-03-26T00:00:14.606Z,0.00
2019-03-26T00:01:15.062Z,0.00
2019-03-26T00:02:15.631Z,0.00
2019-03-26T00:03:16.075Z,0.00
2019-03-26T00:08:40.489Z,0.00
2019-03-26T00:11:26.334Z,0.00
2019-03-26T00:18:42.880Z,0.00
2019-03-26T00:19:44.379Z,0.00
2019-03-26T00:20:44.856Z,0.00
2019-03-26T00:21:45.306Z,0.00
2019-03-26T00:22:45.761Z,0.00
2019-03-26T00:23:46.193Z,0.00
2019-03-26T00:24:46.664Z,0.00
2019-03-26T00:25:47.127Z,0.00
2019-03-26T00:26:47.575Z,0.00
2019-03-26T00:27:48.013Z,0.00
2019-03-26T00:28:48.449Z,0.00
2019-03-26T00:29:48.963Z,0.00
2019-03-26T00:30:49.470Z,0.00
2019-03-26T00:31:49.917Z,0.00
2019-03-26T00:32:50.365Z,0.00
2019-03-26T00:33:50.918Z,0.00
2019-03-26T00:34:51.370Z,0.00
2019-03-26T00:35:51.896Z,0.00
2019-03-26T00:36:52.345Z,0.00
2019-03-26T00:37:52.791Z,0.00
2019-03-26T00:38:53.229Z,0.00
2019-03-26T00:39:53.684Z,0.00
2019-03-26T00:40:54.157Z,0.00
2019-03-26T00:41:54.594Z,0.00
2019-03-26T00:42:55.044Z,0.00
2019-03-26T00:43:55.495Z,0.00
2019-03-26T00:44:55.975Z,0.00
2019-03-26T00:45:56.436Z,0.00
2019-03-26T00:46:56.886Z,0.00
2019-03-26T00:47:57.317Z,0.00
2019-03-26T00:48:57.761Z,0.00
2019-03-26T00:49:58.233Z,0.00
2019-03-26T00:50:58.743Z,0.00
2019-03-26T00:51:59.204Z,0.00
2019-03-26T00:52:59.750Z,0.00
2019-03-26T00:54:00.195Z,0.00
2019-03-26T00:55:02.737Z,0.00
2019-03-26T00:56:03.195Z,0.00
2019-03-26T00:57:05.744Z,0.00
2019-03-26T00:58:06.216Z,0.00
2019-03-26T00:59:06.761Z,0.00
2019-03-26T01:00:07.207Z,0.00
2019-03-26T01:01:07.730Z,0.00
2019-03-26T01:02:08.177Z,0.00
2019-03-26T01:03:08.607Z,0.00
2019-03-26T01:04:09.053Z,0.00
2019-03-26T01:05:09.563Z,0.00
2019-03-26T01:06:10.018Z,0.00
2019-03-26T01:07:10.498Z,0.00
2019-03-26T01:08:10.952Z,0.00
2019-03-26T01:09:11.397Z,0.00
2019-03-26T01:10:11.841Z,0.00
2019-03-26T01:11:12.302Z,0.00
2019-03-26T01:12:12.748Z,0.00
2019-03-26T01:13:13.204Z,0.00
2019-03-26T01:14:21.199Z,0.00
2019-03-26T01:15:21.646Z,0.00
2019-03-26T01:16:22.098Z,0.00
2019-03-26T01:17:22.535Z,0.00
2019-03-26T01:18:22.995Z,0.00
2019-03-26T01:19:23.563Z,0.00
2019-03-26T01:20:24.020Z,0.00
2019-03-26T01:21:24.543Z,0.00
2019-03-26T01:22:25.001Z,0.00
2019-03-26T01:23:25.467Z,0.00
2019-03-26T01:24:25.923Z,0.00
2019-03-26T01:25:26.384Z,0.00
2019-03-26T01:26:26.872Z,0.00
2019-03-26T01:27:27.377Z,0.00
2019-03-26T01:28:27.823Z,0.00
2019-03-26T01:29:28.309Z,0.00
2019-03-26T01:30:28.781Z,0.00
2019-03-26T01:31:29.244Z,0.00
2019-03-26T01:32:29.765Z,0.00
2019-03-26T01:33:30.201Z,0.00
2019-03-26T01:34:30.645Z,0.00
2019-03-26T01:35:31.088Z,0.00
2019-03-26T01:36:31.560Z,0.00
2019-03-26T01:37:31.990Z,0.00
2019-03-26T01:38:32.430Z,0.00
2019-03-26T01:39:32.882Z,0.00
2019-03-26T01:40:33.327Z,0.00
2019-03-26T01:41:33.787Z,0.00
2019-03-26T01:42:34.229Z,0.00
2019-03-26T01:43:34.808Z,0.00
2019-03-26T01:44:35.302Z,0.00
2019-03-26T01:45:35.787Z,0.00
2019-03-26T01:46:36.324Z,0.00
2019-03-26T01:47:36.773Z,0.00
2019-03-26T01:48:37.295Z,0.00
2019-03-26T01:49:37.745Z,0.00
2019-03-26T01:50:38.230Z,0.00
2019-03-26T01:51:38.699Z,0.00
2019-03-26T01:52:39.146Z,0.00
2019-03-26T01:53:39.602Z,0.00
2019-03-26T01:54:40.125Z,0.00
2019-03-26T01:55:40.666Z,0.00
2019-03-26T01:56:41.125Z,0.00
2019-03-26T01:57:41.593Z,0.00
2019-03-26T01:58:42.044Z,0.00
2019-03-26T01:59:42.482Z,0.00
2019-03-26T02:00:42.957Z,0.00
2019-03-26T02:01:43.547Z,0.00
2019-03-26T02:02:44.064Z,0.00
2019-03-26T02:03:44.512Z,0.00
2019-03-26T02:04:44.956Z,0.00
2019-03-26T02:05:45.424Z,0.00
2019-03-26T02:06:45.903Z,0.00
2019-03-26T02:07:46.375Z,0.00
2019-03-26T02:08:46.827Z,0.00
2019-03-26T02:09:47.290Z,0.00
2019-03-26T02:10:47.851Z,0.00
2019-03-26T02:11:48.330Z,0.00
2019-03-26T02:12:48.877Z,0.00
2019-03-26T02:13:49.346Z,0.00
2019-03-26T02:14:49.867Z,0.00
2019-03-26T02:15:50.325Z,0.00
2019-03-26T02:16:50.808Z,0.00
2019-03-26T02:17:51.269Z,0.00
2019-03-26T02:18:51.744Z,0.00
2019-03-26T02:19:52.205Z,0.00
2019-03-26T02:20:52.658Z,0.00
2019-03-26T02:21:53.132Z,0.00
2019-03-26T02:22:53.587Z,0.00
2019-03-26T02:23:54.033Z,0.00
2019-03-26T02:24:54.713Z,0.00
2019-03-26T02:25:55.200Z,0.00
2019-03-26T02:26:55.682Z,0.00
2019-03-26T02:27:56.150Z,0.00
2019-03-26T02:28:56.599Z,0.00
2019-03-26T02:29:57.043Z,0.00
2019-03-26T02:30:57.502Z,0.00
2019-03-26T02:31:57.982Z,0.00
2019-03-26T02:32:58.431Z,0.00
2019-03-26T02:33:59.974Z,0.00
2019-03-26T02:35:16.232Z,0.00
2019-03-26T02:36:06.918Z,0.00
2019-03-26T02:37:07.365Z,0.00
2019-03-26T02:38:07.829Z,0.00
2019-03-26T02:39:08.317Z,0.00
2019-03-26T02:40:08.779Z,0.00
2019-03-26T02:41:09.259Z,0.00
2019-03-26T02:42:09.728Z,0.00
2019-03-26T02:43:10.175Z,0.00
2019-03-26T02:44:10.653Z,0.00
2019-03-26T02:45:11.096Z,0.00
2019-03-26T02:46:11.559Z,0.00
2019-03-26T02:47:12.022Z,0.00
2019-03-26T02:48:12.469Z,0.00
2019-03-26T02:49:15.004Z,0.00
2019-03-26T02:50:15.466Z,0.00
2019-03-26T02:51:16.018Z,0.00
2019-03-26T02:52:16.458Z,0.00
2019-03-26T02:53:17.948Z,0.00
2019-03-26T02:54:18.399Z,0.00
2019-03-26T02:55:19.910Z,0.00
2019-03-26T02:56:20.412Z,0.00
2019-03-26T02:57:20.974Z,0.00
2019-03-26T02:58:21.424Z,0.00
2019-03-26T02:59:21.984Z,0.00
2019-03-26T03:00:22.489Z,0.00
2019-03-26T03:01:23.980Z,0.00
2019-03-26T03:02:24.540Z,0.00
2019-03-26T03:03:27.030Z,0.00
2019-03-26T03:04:27.486Z,0.00
2019-03-26T03:05:42.727Z,0.00
2019-03-26T03:06:43.204Z,0.00
2019-03-26T03:07:59.719Z,0.00
2019-03-26T03:09:00.177Z,0.00
2019-03-26T03:10:00.758Z,0.00
2019-03-26T03:11:01.217Z,0.00
2019-03-26T03:12:05.215Z,0.00
2019-03-26T03:13:05.674Z,0.00
2019-03-26T03:14:07.161Z,0.00
2019-03-26T03:15:07.606Z,0.00
2019-03-26T03:16:09.111Z,0.00
2019-03-26T03:17:09.596Z,0.00
2019-03-26T03:18:11.195Z,0.00
2019-03-26T03:19:15.600Z,0.00
2019-03-26T03:20:23.673Z,0.00
2019-03-26T03:21:24.153Z,0.00
2019-03-26T03:22:24.709Z,0.00
2019-03-26T03:23:25.162Z,0.00
2019-03-26T03:24:25.644Z,0.00
2019-03-26T03:25:26.088Z,0.00
2019-03-26T03:26:27.636Z,0.00
2019-03-26T03:27:28.100Z,0.00
2019-03-26T03:28:29.678Z,0.00
2019-03-26T03:29:30.150Z,0.00
2019-03-26T03:30:31.717Z,0.00
2019-03-26T03:31:32.183Z,0.00
2019-03-26T03:32:32.764Z,0.00
2019-03-26T03:33:33.253Z,0.00
2019-03-26T03:34:34.824Z,0.00
2019-03-26T03:35:51.156Z,0.00
2019-03-26T03:36:41.726Z,0.00
2019-03-26T03:37:42.215Z,0.00
2019-03-26T03:38:42.811Z,0.00
2019-03-26T03:39:43.347Z,0.00
2019-03-26T03:40:43.802Z,0.00
2019-03-26T03:41:45.361Z,0.00
2019-03-26T03:42:45.860Z,0.00
2019-03-26T03:43:46.359Z,0.00
2019-03-26T03:44:46.824Z,0.00
2019-03-26T03:45:47.379Z,0.00
2019-03-26T03:46:47.842Z,0.00
2019-03-26T03:47:48.439Z,0.00
2019-03-26T03:48:48.888Z,0.00
2019-03-26T03:49:49.360Z,0.00
2019-03-26T03:50:49.802Z,0.00
2019-03-26T03:51:50.435Z,0.00
2019-03-26T03:52:50.890Z,0.00
2019-03-26T03:53:51.547Z,0.00
2019-03-26T03:54:52.030Z,0.00
2019-03-26T03:55:53.601Z,0.00
2019-03-26T03:56:54.097Z,0.00
2019-03-26T03:57:54.635Z,0.00
2019-03-26T03:58:55.089Z,0.00
2019-03-26T03:59:57.641Z,0.00
2019-03-26T04:00:58.083Z,0.00
2019-03-26T04:02:00.638Z,0.00
2019-03-26T04:03:01.095Z,0.00
2019-03-26T04:04:01.723Z,0.00
2019-03-26T04:05:02.182Z,0.00
2019-03-26T04:06:10.264Z,0.00
2019-03-26T04:07:10.899Z,0.00
2019-03-26T04:08:11.411Z,0.00
2019-03-26T04:09:11.851Z,0.00
2019-03-26T04:10:13.366Z,0.00
2019-03-26T04:11:13.824Z,0.00
2019-03-26T04:12:14.344Z,0.00
2019-03-26T04:13:14.828Z,0.00
2019-03-26T04:14:15.349Z,0.00
2019-03-26T04:15:15.850Z,0.00
2019-03-26T04:16:16.387Z,0.00
2019-03-26T04:17:16.874Z,0.00
2019-03-26T04:18:17.415Z,0.00
2019-03-26T04:19:17.871Z,0.00
2019-03-26T04:20:19.474Z,0.00
2019-03-26T04:21:19.913Z,0.00
2019-03-26T04:22:20.445Z,0.00
2019-03-26T04:23:20.898Z,0.00
2019-03-26T04:24:23.511Z,0.00
2019-03-26T04:25:23.980Z,0.00
2019-03-26T04:26:24.528Z,0.00
2019-03-26T04:27:24.984Z,0.00
2019-03-26T04:28:25.477Z,0.00
2019-03-26T04:29:25.954Z,0.00
2019-03-26T04:30:26.613Z,0.00
2019-03-26T04:31:27.053Z,0.00
2019-03-26T04:32:28.611Z,0.00
2019-03-26T04:33:29.058Z,0.00
2019-03-26T04:34:30.637Z,0.00
2019-03-26T04:35:31.101Z,0.00
2019-03-26T04:36:31.593Z,0.00
2019-03-26T04:37:32.035Z,0.00
2019-03-26T04:38:32.605Z,0.00
2019-03-26T04:39:33.054Z,0.00
2019-03-26T04:40:34.666Z,0.00
2019-03-26T04:41:35.143Z,0.00
2019-03-26T04:42:42.154Z,0.00
2019-03-26T04:43:42.614Z,0.00
2019-03-26T04:44:43.088Z,0.00
2019-03-26T04:45:43.581Z,0.00
2019-03-26T04:46:49.179Z,0.00
2019-03-26T04:47:49.630Z,0.00
2019-03-26T04:48:51.208Z,0.00
2019-03-26T04:49:51.651Z,0.00
2019-03-26T04:50:52.144Z,0.00
2019-03-26T04:51:52.625Z,0.00
2019-03-26T04:52:54.106Z,0.00
2019-03-26T04:53:54.588Z,0.00
2019-03-26T04:54:55.139Z,0.00
2019-03-26T04:55:55.579Z,4.00
2019-03-26T04:56:56.153Z,0.00
2019-03-26T04:57:56.600Z,0.00
2019-03-26T04:58:57.033Z,4.00
2019-03-26T04:59:57.479Z,0.00
2019-03-26T05:00:57.921Z,4.00
2019-03-26T05:02:02.727Z,0.00
2019-03-26T05:03:03.185Z,4.00
2019-03-26T05:14:01.596Z,24.00
2019-03-26T05:15:02.097Z,32.00
2019-03-26T05:16:09.440Z,40.00
2019-03-26T05:17:09.897Z,48.00
2019-03-26T05:26:10.898Z,108.00
2019-03-26T05:39:50.928Z,236.00
2019-03-26T05:50:09.724Z,420.00
2019-03-26T05:51:10.169Z,436.00
2019-03-26T05:52:37.791Z,480.00
2019-03-26T05:53:38.240Z,500.00
2019-03-26T05:55:08.281Z,540.00
2019-03-26T05:56:08.789Z,524.00
2019-03-26T05:57:32.307Z,588.00
2019-03-26T05:58:32.753Z,632.00
2019-03-26T06:04:48.160Z,768.00
2019-03-26T06:07:06.238Z,844.00
2019-03-26T06:08:06.691Z,828.00
2019-03-26T06:09:08.176Z,820.00
2019-03-26T06:10:08.632Z,864.00
2019-03-26T06:16:58.685Z,1072.00
2019-03-26T06:17:59.132Z,1028.00
2019-03-26T06:18:59.571Z,1052.00
2019-03-26T06:20:00.022Z,1132.00
2019-03-26T06:21:00.543Z,1088.00
2019-03-26T06:22:01.027Z,1104.00
2019-03-26T06:23:01.553Z,1248.00
2019-03-26T06:24:02.017Z,1292.00
2019-03-26T06:25:02.487Z,1304.00
2019-03-26T06:26:02.973Z,1280.00
2019-03-26T06:27:03.457Z,1288.00
2019-03-26T06:28:03.912Z,1312.00
2019-03-26T06:29:04.365Z,1356.00
2019-03-26T06:30:04.826Z,1404.00
2019-03-26T06:31:05.314Z,1432.00
2019-03-26T06:32:05.773Z,1328.00
2019-03-26T06:33:06.236Z,1340.00
2019-03-26T06:34:06.693Z,1424.00
2019-03-26T06:35:15.787Z,1220.00
2019-03-26T06:36:16.247Z,992.00
2019-03-26T06:37:18.104Z,1012.00
2019-03-26T06:38:18.860Z,1100.00
2019-03-26T06:39:19.385Z,1232.00
2019-03-26T06:40:19.829Z,1384.00
2019-03-26T06:41:20.315Z,1460.00
2019-03-26T06:42:20.877Z,1668.00
2019-03-26T06:43:28.227Z,1808.00
2019-03-26T06:44:28.663Z,1964.00
2019-03-26T06:51:07.156Z,3296.00
2019-03-26T06:52:07.620Z,3352.00
2019-03-26T06:54:23.142Z,2652.00
2019-03-26T06:55:23.729Z,2504.00
2019-03-26T06:56:24.165Z,2164.00
2019-03-26T06:57:34.926Z,1804.00
2019-03-26T06:58:31.036Z,1524.00
2019-03-26T06:59:31.546Z,1480.00
2019-03-26T07:00:31.986Z,1328.00
2019-03-26T07:01:32.514Z,1384.00
2019-03-26T07:02:32.971Z,1616.00
2019-03-26T07:03:33.436Z,1676.00
2019-03-26T07:04:33.873Z,1528.00
2019-03-26T07:05:34.418Z,1540.00
2019-03-26T07:06:34.856Z,1628.00
2019-03-26T07:07:35.352Z,1444.00
2019-03-26T07:08:35.800Z,1432.00
2019-03-26T07:09:36.251Z,1464.00
2019-03-26T07:10:36.697Z,1332.00
2019-03-26T07:11:37.147Z,1476.00
2019-03-26T07:12:37.681Z,1448.00
2019-03-26T07:13:38.689Z,1832.00
2019-03-26T07:14:39.188Z,2520.00
2019-03-26T07:15:39.630Z,2260.00
2019-03-26T07:16:40.074Z,1924.00
2019-03-26T07:17:40.629Z,1512.00
2019-03-26T07:18:41.079Z,1508.00
2019-03-26T07:19:41.533Z,1956.00
2019-03-26T07:20:41.973Z,2400.00
2019-03-26T07:21:49.487Z,2516.00
2019-03-26T07:22:48.839Z,2464.00
2019-03-26T07:23:49.290Z,2616.00
2019-03-26T07:24:49.732Z,2868.00
2019-03-26T07:25:50.254Z,3064.00
2019-03-26T07:26:50.866Z,3252.00
2019-03-26T07:27:51.338Z,3344.00
2019-03-26T07:28:51.796Z,3500.00
2019-03-26T07:29:52.254Z,3492.00
2019-03-26T07:30:53.183Z,3544.00
2019-03-26T07:31:53.655Z,3744.00
2019-03-26T07:32:54.124Z,3504.00
2019-03-26T07:33:54.568Z,3476.00
2019-03-26T07:34:55.004Z,3368.00
2019-03-26T07:35:55.464Z,3276.00
2019-03-26T07:36:55.974Z,3256.00
2019-03-26T07:37:56.437Z,3504.00
2019-03-26T07:38:56.876Z,3700.00
2019-03-26T07:39:57.324Z,3516.00
2019-03-26T07:40:57.760Z,3512.00
2019-03-26T07:41:58.203Z,3560.00
2019-03-26T07:43:06.377Z,3804.00
2019-03-26T07:44:06.852Z,3980.00
2019-03-26T07:45:08.419Z,3900.00
2019-03-26T07:46:08.883Z,3856.00
2019-03-26T07:47:09.377Z,3720.00
2019-03-26T07:48:09.826Z,3744.00
2019-03-26T07:49:10.378Z,3936.00
2019-03-26T07:50:13.838Z,4156.00
2019-03-26T07:51:15.607Z,4196.00
2019-03-26T07:52:16.080Z,4112.00
2019-03-26T07:53:16.648Z,3932.00
2019-03-26T07:54:17.100Z,3908.00
2019-03-26T07:55:18.612Z,4064.00
2019-03-26T07:56:19.075Z,3736.00
2019-03-26T07:57:19.605Z,3460.00
2019-03-26T07:58:20.124Z,3772.00
2019-03-26T07:59:20.683Z,3988.00
2019-03-26T08:00:21.113Z,4172.00
2019-03-26T08:01:21.579Z,4348.00
2019-03-26T08:02:22.067Z,4636.00
2019-03-26T08:03:22.515Z,4672.00
2019-03-26T08:04:22.976Z,4788.00
2019-03-26T08:05:29.658Z,5080.00
2019-03-26T08:06:30.933Z,5024.00
2019-03-26T08:07:32.453Z,4996.00
2019-03-26T08:08:32.915Z,4888.00
2019-03-26T08:09:50.247Z,4872.00
2019-03-26T08:10:50.713Z,4572.00
2019-03-26T08:11:52.313Z,4452.00
2019-03-26T08:12:52.790Z,4420.00
2019-03-26T08:13:53.351Z,4508.00
2019-03-26T08:14:53.814Z,4556.00
2019-03-26T08:15:55.312Z,4700.00
2019-03-26T08:16:55.789Z,4876.00
2019-03-26T08:17:58.322Z,5040.00
2019-03-26T08:18:58.767Z,5340.00
2019-03-26T08:19:59.325Z,5800.00
2019-03-26T08:20:59.824Z,5912.00
2019-03-26T08:22:00.291Z,5656.00
2019-03-26T08:23:00.764Z,5664.00
2019-03-26T08:24:01.203Z,6488.00
2019-03-26T08:25:01.652Z,5932.00
2019-03-26T08:26:02.105Z,5760.00
2019-03-26T08:27:02.559Z,5804.00
2019-03-26T08:28:05.060Z,6176.00
2019-03-26T08:29:05.908Z,6212.00
2019-03-26T08:30:06.492Z,5848.00
2019-03-26T08:31:06.946Z,5504.00
2019-03-26T08:32:07.405Z,5644.00
2019-03-26T08:33:07.886Z,5872.00
2019-03-26T08:34:08.381Z,5624.00
2019-03-26T08:35:08.835Z,5712.00
2019-03-26T08:36:09.272Z,5588.00
2019-03-26T08:37:09.820Z,5612.00
2019-03-26T08:38:12.907Z,6032.00
2019-03-26T08:39:13.657Z,7000.00
2019-03-26T08:40:14.141Z,7008.00
2019-03-26T08:41:14.626Z,7228.00
2019-03-26T08:42:15.101Z,7504.00
2019-03-26T08:43:15.555Z,7680.00
2019-03-26T08:44:16.114Z,7620.00
2019-03-26T08:45:16.569Z,7460.00
2019-03-26T08:46:17.154Z,7144.00
2019-03-26T08:47:17.661Z,7244.00
2019-03-26T08:48:18.151Z,7492.00
2019-03-26T08:49:18.710Z,7368.00
2019-03-26T08:50:25.767Z,7312.00
2019-03-26T08:51:26.248Z,6944.00
2019-03-26T08:52:26.728Z,7328.00
2019-03-26T08:54:42.711Z,8204.00
2019-03-26T08:55:43.176Z,8420.00
2019-03-26T08:56:43.680Z,8164.00
2019-03-26T08:57:44.310Z,9148.00
2019-03-26T08:58:45.086Z,11192.00
2019-03-26T08:59:45.558Z,11264.00
2019-03-26T09:00:46.027Z,10304.00
2019-03-26T09:01:46.506Z,10428.00
2019-03-26T09:02:47.153Z,10108.00
2019-03-26T09:03:47.670Z,9888.00
2019-03-26T09:04:48.118Z,9072.00
2019-03-26T09:05:48.614Z,8396.00
2019-03-26T09:06:49.070Z,8140.00
2019-03-26T09:07:49.685Z,8252.00
2019-03-26T09:08:50.181Z,7916.00
2019-03-26T09:09:50.668Z,7700.00
2019-03-26T09:10:52.151Z,7592.00
2019-03-26T09:11:52.845Z,7524.00
2019-03-26T09:12:53.443Z,7432.00
2019-03-26T09:13:54.090Z,7356.00
2019-03-26T09:14:54.553Z,7364.00
2019-03-26T09:15:55.129Z,7340.00
2019-03-26T09:16:55.582Z,6840.00
2019-03-26T09:17:56.105Z,6256.00
2019-03-26T09:18:56.559Z,5820.00
2019-03-26T09:19:57.008Z,5328.00
2019-03-26T09:20:57.502Z,4832.00
2019-03-26T09:21:57.957Z,4448.00
2019-03-26T09:22:58.437Z,4180.00
2019-03-26T09:23:58.890Z,4084.00
2019-03-26T09:24:59.368Z,4156.00
2019-03-26T09:25:59.854Z,4248.00
2019-03-26T09:27:00.325Z,4196.00
2019-03-26T09:28:00.899Z,4104.00
2019-03-26T09:29:08.198Z,3956.00
2019-03-26T09:30:08.659Z,3912.00
2019-03-26T09:31:09.117Z,4376.00
2019-03-26T09:32:09.569Z,4688.00
2019-03-26T09:33:10.035Z,5304.00
2019-03-26T09:34:10.560Z,4672.00
2019-03-26T09:35:11.113Z,4088.00
2019-03-26T09:36:11.606Z,3512.00
2019-03-26T09:37:12.164Z,3368.00
2019-03-26T09:38:12.635Z,3660.00
2019-03-26T09:39:14.104Z,3544.00
2019-03-26T09:40:14.547Z,3388.00
2019-03-26T09:41:15.047Z,3516.00
2019-03-26T09:42:15.497Z,4256.00
2019-03-26T09:43:15.963Z,4844.00
2019-03-26T09:44:16.424Z,5544.00
2019-03-26T09:45:17.589Z,5604.00
2019-03-26T09:46:18.629Z,6016.00
2019-03-26T09:47:19.187Z,6160.00
2019-03-26T09:48:19.662Z,6236.00
2019-03-26T09:49:20.111Z,6260.00
2019-03-26T09:50:20.570Z,5880.00
2019-03-26T09:51:21.042Z,6240.00
2019-03-26T09:52:21.591Z,6992.00
2019-03-26T09:53:22.051Z,7308.00
2019-03-26T09:54:22.498Z,7052.00
2019-03-26T09:55:23.020Z,6460.00
2019-03-26T09:56:30.653Z,7048.00
2019-03-26T09:57:29.917Z,6824.00
2019-03-26T09:58:30.365Z,7108.00
2019-03-26T09:59:31.938Z,6908.00
2019-03-26T10:00:32.439Z,7052.00
2019-03-26T10:02:08.700Z,7240.00
2019-03-26T10:03:09.156Z,8120.00
2019-03-26T10:05:33.679Z,8288.00
2019-03-26T10:09:10.869Z,8080.00
2019-03-26T10:10:33.434Z,7964.00
2019-03-26T10:11:33.881Z,7876.00
2019-03-26T19:17:29.725Z,12.00
2019-03-26T19:18:37.021Z,12.00
2019-03-26T19:19:37.580Z,0.00
2019-03-26T19:20:38.217Z,0.00
2019-03-26T19:21:38.744Z,0.00
2019-03-26T19:22:39.343Z,0.00
2019-03-26T19:23:39.887Z,0.00
2019-03-26T19:24:40.438Z,0.00
2019-03-26T19:25:41.151Z,0.00
2019-03-26T19:26:41.672Z,0.00
2019-03-26T19:27:42.200Z,0.00
2019-03-26T19:28:51.490Z,0.00
2019-03-26T19:29:52.077Z,0.00
2019-03-26T19:30:52.659Z,0.00
2019-03-26T19:31:53.134Z,0.00
2019-03-26T19:32:57.473Z,0.00
2019-03-26T19:33:58.322Z,0.00
2019-03-26T19:34:58.829Z,0.00
2019-03-26T19:35:59.312Z,0.00
2019-03-26T19:37:00.867Z,0.00
2019-03-26T19:38:01.336Z,0.00
2019-03-26T19:39:02.807Z,0.00
2019-03-26T19:40:03.307Z,0.00
2019-03-26T19:41:03.854Z,0.00
2019-03-26T19:42:04.324Z,0.00
2019-03-26T19:43:11.365Z,0.00
2019-03-26T19:44:12.079Z,0.00
2019-03-26T19:45:12.608Z,0.00
2019-03-26T19:46:13.063Z,0.00
2019-03-26T19:47:13.510Z,0.00
2019-03-26T19:48:14.158Z,0.00
2019-03-26T19:49:14.621Z,0.00
2019-03-26T19:50:15.208Z,0.00
2019-03-26T19:51:15.658Z,0.00
2019-03-26T19:52:16.103Z,0.00
2019-03-26T19:53:16.554Z,0.00
2019-03-26T19:54:17.142Z,0.00
2019-03-26T19:55:17.610Z,0.00
2019-03-26T19:56:18.185Z,0.00
2019-03-26T19:57:18.630Z,0.00
2019-03-26T19:58:19.220Z,0.00
2019-03-26T19:59:19.668Z,0.00
2019-03-26T20:00:21.213Z,0.00
2019-03-26T20:01:21.674Z,0.00
2019-03-26T20:02:22.150Z,0.00
2019-03-26T20:03:22.599Z,0.00
2019-03-26T20:04:23.166Z,0.00
2019-03-26T20:05:23.647Z,0.00
2019-03-26T20:06:24.205Z,0.00
2019-03-26T20:07:24.667Z,0.00
2019-03-26T20:08:25.218Z,0.00
2019-03-26T20:09:25.732Z,0.00
2019-03-26T20:12:35.664Z,0.00
2019-03-26T20:13:36.194Z,0.00
2019-03-26T20:14:36.654Z,0.00
2019-03-26T20:15:37.163Z,0.00
2019-03-26T20:16:42.184Z,0.00
2019-03-26T20:17:42.980Z,0.00
2019-03-26T20:18:43.413Z,0.00
2019-03-26T20:19:44.967Z,0.00
2019-03-26T20:20:45.416Z,0.00
2019-03-26T20:21:45.886Z,0.00
2019-03-26T20:22:46.365Z,0.00
2019-03-26T20:23:46.817Z,0.00
2019-03-26T20:25:23.836Z,0.00
2019-03-26T20:26:24.279Z,0.00
2019-03-26T20:32:30.388Z,0.00
2019-03-26T20:33:30.837Z,0.00
2019-03-26T20:37:31.971Z,0.00
2019-03-26T20:38:32.415Z,0.00
2019-03-26T20:45:26.562Z,0.00
2019-03-26T20:46:27.012Z,0.00
2019-03-26T20:49:38.065Z,0.00
2019-03-26T20:56:30.781Z,0.00
2019-03-26T21:03:09.523Z,0.00
2019-03-26T21:04:09.973Z,0.00
2019-03-26T21:05:43.493Z,0.00
2019-03-26T21:06:43.942Z,0.00
2019-03-26T21:09:55.109Z,0.00
2019-03-26T21:10:55.556Z,0.00
2019-03-26T21:11:56.094Z,0.00
2019-03-26T21:12:56.553Z,0.00
2019-03-26T21:13:57.009Z,0.00
2019-03-26T21:14:57.495Z,0.00
2019-03-26T21:15:57.947Z,0.00
2019-03-26T21:16:58.404Z,0.00
2019-03-26T21:17:58.845Z,0.00
2019-03-26T21:18:59.312Z,0.00
2019-03-26T21:19:59.785Z,0.00
2019-03-26T21:21:00.231Z,0.00
2019-03-26T21:22:00.690Z,0.00
2019-03-26T21:23:01.167Z,0.00
2019-03-26T21:24:01.916Z,0.00
2019-03-26T21:25:02.422Z,0.00
2019-03-26T21:30:20.833Z,0.00
2019-03-26T21:31:21.298Z,0.00
2019-03-26T21:32:21.845Z,0.00
2019-03-26T21:33:22.315Z,0.00
2019-03-26T21:34:30.260Z,0.00
2019-03-26T21:35:30.277Z,0.00
2019-03-26T21:36:30.747Z,0.00
2019-03-26T21:37:31.314Z,0.00
2019-03-26T21:38:31.786Z,0.00
2019-03-26T21:49:44.387Z,0.00
2019-03-26T21:50:44.860Z,0.00
2019-03-26T21:51:45.494Z,0.00
2019-03-26T21:52:45.939Z,0.00
2019-03-26T21:53:46.376Z,0.00
2019-03-26T21:54:46.952Z,0.00
2019-03-26T21:55:47.437Z,0.00
2019-03-26T21:56:47.990Z,0.00
2019-03-26T21:57:48.423Z,0.00
2019-03-26T21:58:57.844Z,0.00
2019-03-26T21:59:58.295Z,0.00
2019-03-26T22:00:58.777Z,0.00
2019-03-26T22:01:59.285Z,0.00
2019-03-26T22:02:59.719Z,0.00
2019-03-26T22:04:00.184Z,0.00
2019-03-26T22:05:00.630Z,0.00
2019-03-26T22:06:01.126Z,0.00
2019-03-26T22:07:01.572Z,0.00
2019-03-26T22:08:02.021Z,0.00
2019-03-26T22:09:02.572Z,0.00
2019-03-26T22:10:03.035Z,0.00
2019-03-26T22:11:03.507Z,0.00
2019-03-26T22:12:04.009Z,0.00
2019-03-26T22:13:04.486Z,0.00
2019-03-26T22:14:17.395Z,0.00
2019-03-26T22:15:11.416Z,0.00
2019-03-26T22:16:12.047Z,0.00
2019-03-26T22:17:12.484Z,0.00
2019-03-26T22:18:12.982Z,0.00
2019-03-26T22:19:13.424Z,0.00
2019-03-26T22:20:14.058Z,0.00
2019-03-26T22:21:14.527Z,0.00
2019-03-26T22:22:14.979Z,0.00
2019-03-26T22:23:22.337Z,0.00
2019-03-26T22:24:22.842Z,0.00
2019-03-26T22:25:23.427Z,0.00
2019-03-26T22:26:23.919Z,0.00
2019-03-26T22:27:24.367Z,0.00
2019-03-26T22:28:24.811Z,0.00
2019-03-26T22:29:26.370Z,0.00
2019-03-26T22:30:26.824Z,0.00
2019-03-26T22:31:29.389Z,0.00
2019-03-26T22:32:29.836Z,0.00
2019-03-26T22:33:30.386Z,0.00
2019-03-26T22:34:30.828Z,0.00
2019-03-26T22:35:34.445Z,0.00
2019-03-26T22:36:34.887Z,0.00
2019-03-26T22:37:35.429Z,0.00
2019-03-26T22:38:35.875Z,0.00
2019-03-26T22:39:36.331Z,0.00
2019-03-26T22:40:36.782Z,0.00
2019-03-26T22:41:37.224Z,0.00
2019-03-26T22:42:37.660Z,0.00
2019-03-26T22:43:38.114Z,0.00
2019-03-26T22:44:38.594Z,0.00
2019-03-26T22:45:39.072Z,0.00
2019-03-26T22:46:39.532Z,0.00
2019-03-26T23:04:03.561Z,0.00
2019-03-26T23:07:13.435Z,0.00
2019-03-26T23:08:13.936Z,0.00
2019-03-26T23:11:37.122Z,0.00
2019-03-26T23:13:06.548Z,0.00
2019-03-26T23:14:07.048Z,0.00
2019-03-26T23:17:17.199Z,0.00
2019-03-26T23:18:26.550Z,0.00
2019-03-26T23:19:26.999Z,0.00
2019-03-26T23:20:30.596Z,0.00
2019-03-26T23:21:31.042Z,0.00
2019-03-26T23:22:31.597Z,0.00
2019-03-26T23:23:32.050Z,0.00
2019-03-26T23:24:32.625Z,0.00
2019-03-26T23:25:33.081Z,0.00
2019-03-26T23:26:33.660Z,0.00
2019-03-26T23:27:34.114Z,0.00
2019-03-26T23:28:34.573Z,0.00
2019-03-26T23:29:35.021Z,0.00
2019-03-26T23:30:40.582Z,0.00
2019-03-26T23:31:41.027Z,0.00
2019-03-26T23:32:41.488Z,0.00
2019-03-26T23:33:41.926Z,0.00
2019-03-26T23:34:42.418Z,0.00
2019-03-26T23:35:42.910Z,0.00
2019-03-26T23:36:43.350Z,0.00
2019-03-26T23:37:43.869Z,0.00
2019-03-26T23:38:44.396Z,0.00
2019-03-26T23:39:44.842Z,0.00
2019-03-26T23:40:46.389Z,0.00
2019-03-26T23:41:46.839Z,0.00
